createdAt,value
2019-04-14T00:02:11.717Z,62.53
2019-04-14T00:04:46.571Z,61.03
2019-04-14T00:07:18.747Z,56.70
2019-04-14T00:09:50.175Z,61.63
2019-04-14T00:12:21.149Z,62.77
2019-04-14T00:14:53.287Z,61.13
2019-04-14T00:17:24.423Z,62.33
2019-04-14T00:19:56.598Z,60.53
2019-04-14T00:22:29.534Z,67.40
2019-04-14T00:25:00.506Z,64.93
2019-04-14T00:27:32.380Z,63.57
2019-04-14T00:30:04.036Z,59.90
2019-04-14T00:32:43.032Z,58.40
2019-04-14T00:35:34.212Z,61.53
2019-04-14T00:38:17.197Z,60.83
2019-04-14T00:41:13.693Z,63.37
2019-04-14T00:43:55.586Z,63.43
2019-04-14T00:46:34.193Z,65.67
2019-04-14T00:49:07.070Z,61.53
2019-04-14T00:51:39.367Z,58.10
2019-04-14T00:54:11.053Z,59.50
2019-04-14T00:56:43.355Z,69.50
2019-04-14T00:59:15.648Z,64.97
2019-04-14T01:01:46.686Z,63.00
2019-04-14T01:04:18.737Z,62.97
2019-04-14T01:06:51.182Z,71.93
2019-04-14T01:09:22.410Z,61.80
2019-04-14T01:11:53.392Z,62.20
2019-04-14T01:14:25.559Z,65.83
2019-04-14T01:16:57.934Z,57.83
2019-04-14T01:19:29.086Z,59.77
2019-04-14T01:22:01.042Z,57.40
2019-04-14T01:24:33.658Z,58.40
2019-04-14T01:27:06.036Z,66.20
2019-04-14T01:29:38.376Z,59.57
2019-04-14T01:32:11.218Z,64.33
2019-04-14T01:34:43.407Z,66.93
2019-04-14T01:37:15.818Z,57.93
2019-04-14T01:39:48.107Z,60.40
2019-04-14T01:42:20.236Z,74.33
2019-04-14T01:44:52.422Z,59.77
2019-04-14T01:47:24.882Z,60.37
2019-04-14T01:49:57.287Z,66.60
2019-04-14T01:52:38.394Z,63.27
2019-04-14T01:55:28.782Z,58.50
2019-04-14T01:58:07.864Z,58.90
2019-04-14T02:01:10.519Z,61.13
2019-04-14T02:03:43.346Z,57.13
2019-04-14T02:06:15.675Z,56.67
2019-04-14T02:08:47.718Z,62.67
2019-04-14T02:11:19.019Z,54.00
2019-04-14T02:13:50.882Z,57.93
2019-04-14T02:16:32.255Z,54.00
2019-04-14T02:18:56.890Z,55.73
2019-04-14T02:21:28.345Z,54.70
2019-04-14T02:24:00.481Z,57.17
2019-04-14T02:26:32.877Z,59.60
2019-04-14T02:29:04.161Z,58.00
2019-04-14T02:32:00.907Z,59.03
2019-04-14T02:34:48.042Z,63.10
2019-04-14T02:37:12.223Z,56.77
2019-04-14T02:39:48.232Z,57.70
2019-04-14T02:42:26.035Z,61.73
2019-04-14T02:44:45.767Z,60.87
2019-04-14T02:47:39.299Z,62.97
2019-04-14T02:49:50.774Z,61.27
2019-04-14T03:00:07.863Z,61.50
2019-04-14T03:05:01.919Z,58.23
2019-04-14T03:10:18.196Z,59.03
2019-04-14T03:12:48.533Z,60.20
2019-04-14T03:15:15.571Z,58.87
2019-04-14T03:18:24.524Z,56.53
2019-04-14T03:21:21.388Z,60.70
2019-04-14T03:24:07.057Z,63.13
2019-04-14T03:26:45.009Z,56.00
2019-04-14T03:32:14.219Z,58.87
2019-04-14T03:34:42.374Z,57.77
2019-04-14T03:39:39.027Z,57.60
2019-04-14T03:42:08.680Z,63.50
2019-04-14T03:44:41.917Z,57.17
2019-04-14T03:47:21.691Z,63.43
2019-04-14T03:52:27.618Z,63.43
2019-04-14T03:54:45.501Z,60.53
2019-04-14T03:56:59.818Z,60.47
2019-04-14T03:59:32.309Z,58.87
2019-04-14T04:02:03.390Z,60.83
2019-04-14T04:04:34.372Z,72.20
2019-04-14T04:07:06.210Z,60.77
2019-04-14T04:09:46.162Z,59.40
2019-04-14T04:12:18.292Z,63.20
2019-04-14T04:14:49.287Z,65.77
2019-04-14T04:17:34.047Z,63.57
2019-04-14T04:20:20.228Z,60.47
2019-04-14T04:23:09.576Z,59.63
2019-04-14T04:25:48.688Z,57.50
2019-04-14T04:28:40.641Z,58.00
2019-04-14T04:31:32.793Z,59.67
2019-04-14T04:34:09.902Z,53.50
2019-04-14T04:36:53.143Z,63.63
2019-04-14T04:39:33.776Z,70.63
2019-04-14T04:42:04.814Z,60.80
2019-04-14T04:44:35.892Z,60.30
2019-04-14T04:47:07.760Z,62.83
2019-04-14T04:49:38.793Z,67.93
2019-04-14T04:52:11.421Z,67.97
2019-04-14T04:54:42.814Z,63.70
2019-04-14T04:57:13.918Z,61.00
2019-04-14T04:59:45.288Z,61.37
2019-04-14T05:02:17.619Z,61.70
2019-04-14T05:04:50.566Z,65.63
2019-04-14T05:07:23.164Z,72.87
2019-04-14T05:10:19.577Z,66.83
2019-04-14T05:13:03.032Z,62.77
2019-04-14T05:15:59.860Z,68.37
2019-04-14T05:18:31.302Z,61.53
2019-04-14T05:21:02.377Z,69.77
2019-04-14T05:23:34.252Z,66.00
2019-04-14T05:26:05.359Z,63.33
2019-04-14T05:28:37.310Z,66.93
2019-04-14T05:31:09.777Z,73.13
2019-04-14T05:33:40.802Z,65.63
2019-04-14T05:36:12.848Z,67.80
2019-04-14T05:38:44.918Z,65.63
2019-04-14T05:41:16.013Z,67.77
2019-04-14T05:43:52.128Z,65.17
2019-04-14T05:46:20.714Z,63.87
2019-04-14T05:48:51.928Z,66.20
2019-04-14T05:51:24.512Z,61.77
2019-04-14T05:53:56.561Z,61.90
2019-04-14T05:56:27.849Z,67.30
2019-04-14T05:59:00.042Z,67.93
2019-04-14T06:01:31.586Z,65.57
2019-04-14T06:04:02.542Z,67.80
2019-04-14T06:06:33.507Z,66.10
2019-04-14T06:09:06.422Z,66.00
2019-04-14T06:11:37.658Z,72.80
2019-04-14T06:14:08.714Z,71.97
2019-04-14T06:16:39.712Z,68.50
2019-04-14T06:19:10.771Z,70.07
2019-04-14T06:21:41.854Z,76.07
2019-04-14T06:24:12.844Z,79.00
2019-04-14T06:26:44.151Z,72.03
2019-04-14T06:29:15.266Z,70.33
2019-04-14T06:32:03.453Z,66.70
2019-04-14T06:34:49.118Z,68.27
2019-04-14T06:37:35.537Z,67.67
2019-04-14T06:40:07.344Z,70.60
2019-04-14T06:42:38.347Z,64.40
2019-04-14T06:45:10.757Z,69.47
2019-04-14T06:47:42.848Z,71.30
2019-04-14T06:50:13.966Z,67.80
2019-04-14T06:52:44.943Z,66.00
2019-04-14T06:55:15.897Z,64.40
2019-04-14T06:57:46.911Z,69.40
2019-04-14T07:00:17.986Z,67.40
2019-04-14T07:02:48.989Z,62.60
2019-04-14T07:05:19.949Z,64.57
2019-04-14T07:07:56.949Z,68.27
2019-04-14T07:10:23.762Z,64.73
2019-04-14T07:12:54.746Z,74.47
2019-04-14T07:15:25.738Z,62.60
2019-04-14T07:17:56.707Z,71.23
2019-04-14T07:20:27.686Z,63.00
2019-04-14T07:22:58.676Z,70.83
2019-04-14T07:25:29.658Z,73.13
2019-04-14T07:28:00.649Z,64.37
2019-04-14T07:31:02.679Z,60.97
2019-04-14T07:33:52.606Z,62.50
2019-04-14T07:36:37.945Z,63.83
2019-04-14T07:39:26.893Z,56.20
2019-04-14T07:42:06.597Z,56.83
2019-04-14T07:44:55.370Z,65.30
2019-04-14T07:47:45.258Z,59.07
2019-04-14T07:50:25.187Z,66.17
2019-04-14T07:53:14.753Z,68.93
2019-04-14T07:56:05.145Z,61.10
2019-04-14T07:58:48.805Z,63.13
2019-04-14T08:01:26.480Z,61.20
2019-04-14T08:04:16.385Z,55.53
2019-04-14T08:06:51.708Z,54.53
2019-04-14T08:09:22.691Z,60.17
2019-04-14T08:11:53.673Z,56.77
2019-04-14T08:14:24.838Z,53.83
2019-04-14T08:16:55.916Z,58.77
2019-04-14T08:19:26.901Z,57.33
2019-04-14T08:21:58.028Z,58.80
2019-04-14T08:24:29.022Z,56.30
2019-04-14T08:26:59.992Z,58.70
2019-04-14T08:29:30.976Z,54.20
2019-04-14T08:32:01.995Z,57.13
2019-04-14T08:34:32.999Z,56.63
2019-04-14T08:37:04.052Z,55.87
2019-04-14T08:39:35.203Z,56.63
2019-04-14T08:42:19.147Z,58.07
2019-04-14T08:44:51.473Z,59.77
2019-04-14T08:47:30.894Z,79.53
2019-04-14T08:50:07.068Z,80.70
2019-04-14T08:53:03.120Z,61.77
2019-04-14T08:55:39.859Z,56.03
2019-04-14T08:58:21.331Z,58.17
2019-04-14T09:01:01.729Z,55.47
2019-04-14T09:03:50.479Z,55.27
2019-04-14T09:06:29.386Z,56.30
2019-04-14T09:09:19.124Z,59.17
2019-04-14T09:11:54.204Z,60.63
2019-04-14T09:14:25.179Z,60.10
2019-04-14T09:16:56.164Z,56.20
2019-04-14T09:19:27.128Z,50.77
2019-04-14T09:21:58.102Z,56.90
2019-04-14T09:24:29.072Z,55.30
2019-04-14T09:27:00.064Z,52.80
2019-04-14T09:29:31.043Z,55.33
2019-04-14T09:32:02.319Z,55.83
2019-04-14T09:34:34.301Z,53.60
2019-04-14T09:37:05.350Z,56.30
2019-04-14T09:39:36.320Z,57.20
2019-04-14T09:42:07.314Z,56.60
2019-04-14T09:44:38.340Z,54.17
2019-04-14T09:47:09.559Z,52.10
2019-04-14T09:49:40.533Z,55.00
2019-04-14T09:52:11.529Z,55.23
2019-04-14T09:54:42.529Z,55.27
2019-04-14T09:57:13.523Z,57.73
2019-04-14T09:59:44.496Z,49.73
2019-04-14T10:02:15.486Z,48.40
2019-04-14T10:04:46.460Z,68.77
2019-04-14T10:07:17.724Z,47.90
2019-04-14T10:09:48.778Z,49.73
2019-04-14T10:12:19.880Z,52.70
2019-04-14T10:14:50.914Z,58.77
2019-04-14T10:17:21.897Z,49.87
2019-04-14T10:19:52.901Z,50.37
2019-04-14T10:22:33.371Z,50.07
2019-04-14T10:24:57.791Z,53.17
2019-04-14T10:27:28.772Z,56.83
2019-04-14T10:29:59.757Z,52.10
2019-04-14T10:32:30.772Z,52.53
2019-04-14T10:35:01.737Z,59.67
2019-04-14T10:37:33.027Z,58.77
2019-04-14T10:40:06.218Z,57.57
2019-04-14T10:42:37.353Z,59.10
2019-04-14T10:45:08.943Z,53.10
2019-04-14T10:47:39.947Z,51.37
2019-04-14T10:50:11.379Z,57.00
2019-04-14T10:52:42.386Z,60.60
2019-04-14T10:55:13.558Z,58.90
2019-04-14T10:57:44.541Z,67.80
2019-04-14T11:00:17.415Z,58.50
2019-04-14T11:02:48.436Z,53.33
2019-04-14T11:05:20.791Z,51.60
2019-04-14T11:07:51.733Z,54.37
2019-04-14T11:10:22.818Z,52.23
2019-04-14T11:12:53.893Z,56.37
2019-04-14T11:15:25.248Z,55.73
2019-04-14T11:17:56.248Z,57.47
2019-04-14T11:20:27.264Z,58.03
2019-04-14T11:23:03.613Z,60.70
2019-04-14T11:25:30.993Z,62.10
2019-04-14T11:28:01.987Z,60.37
2019-04-14T11:30:33.493Z,58.70
2019-04-14T11:33:19.326Z,57.70
2019-04-14T11:36:05.434Z,63.17
2019-04-14T11:38:53.680Z,63.17
2019-04-14T11:41:24.716Z,64.97
2019-04-14T11:43:55.742Z,56.03
2019-04-14T11:46:26.792Z,57.63
2019-04-14T11:48:57.846Z,53.63
2019-04-14T11:51:28.919Z,55.23
2019-04-14T11:53:59.964Z,54.73
2019-04-14T11:56:30.929Z,59.87
2019-04-14T11:59:01.988Z,57.90
2019-04-14T12:01:51.030Z,61.10
2019-04-14T12:04:53.321Z,55.80
2019-04-14T12:07:41.390Z,57.33
2019-04-14T12:10:14.879Z,58.20
2019-04-14T12:12:45.912Z,54.43
2019-04-14T12:15:16.981Z,55.60
2019-04-14T12:17:47.920Z,56.47
2019-04-14T12:20:18.995Z,55.70
2019-04-14T12:22:50.003Z,53.27
2019-04-14T12:25:21.007Z,52.03
2019-04-14T12:27:52.056Z,52.97
2019-04-14T12:30:24.394Z,56.30
2019-04-14T12:32:55.497Z,53.20
2019-04-14T12:35:26.700Z,53.60
2019-04-14T12:37:57.746Z,55.00
2019-04-14T12:40:28.912Z,49.37
2019-04-14T12:43:18.802Z,57.00
2019-04-14T12:46:07.794Z,48.33
2019-04-14T12:48:44.401Z,49.10
2019-04-14T12:51:20.713Z,54.67
2019-04-14T12:53:51.717Z,58.70
2019-04-14T12:56:25.626Z,59.23
2019-04-14T12:59:18.149Z,53.10
2019-04-14T13:01:59.635Z,54.40
2019-04-14T13:04:30.602Z,50.50
2019-04-14T13:07:01.697Z,49.53
2019-04-14T13:09:32.786Z,57.50
2019-04-14T13:12:04.094Z,49.53
2019-04-14T13:14:36.287Z,52.97
2019-04-14T13:17:07.420Z,50.70
2019-04-14T13:19:38.401Z,52.10
2019-04-14T13:22:09.465Z,48.97
2019-04-14T13:24:40.524Z,50.63
2019-04-14T13:27:11.505Z,55.17
2019-04-14T13:29:42.475Z,60.40
2019-04-14T13:32:13.553Z,53.40
2019-04-14T13:34:44.547Z,50.60
2019-04-14T13:37:15.601Z,55.50
2019-04-14T13:39:46.566Z,53.83
2019-04-14T13:42:17.558Z,52.93
2019-04-14T13:44:48.546Z,56.70
2019-04-14T13:47:19.534Z,50.93
2019-04-14T13:49:50.584Z,54.30
2019-04-14T13:52:21.651Z,48.37
2019-04-14T13:54:52.720Z,50.40
2019-04-14T13:57:23.761Z,54.83
2019-04-14T13:59:54.789Z,50.23
2019-04-14T14:02:26.940Z,52.10
2019-04-14T14:04:57.922Z,51.40
2019-04-14T14:07:28.940Z,52.57
2019-04-14T14:09:59.924Z,51.87
2019-04-14T14:12:35.972Z,55.27
2019-04-14T14:15:34.608Z,53.60
2019-04-14T14:18:33.715Z,57.17
2019-04-14T14:21:16.721Z,47.97
2019-04-14T14:24:04.683Z,49.97
2019-04-14T14:26:36.726Z,58.43
2019-04-14T14:29:07.706Z,49.53
2019-04-14T14:31:38.711Z,54.10
2019-04-14T14:34:09.778Z,48.50
2019-04-14T14:36:40.760Z,56.53
2019-04-14T14:39:13.397Z,47.60
2019-04-14T14:41:44.362Z,49.37
2019-04-14T14:44:15.417Z,49.60
2019-04-14T14:47:03.933Z,48.40
2019-04-14T14:49:59.481Z,61.93
2019-04-14T14:52:31.257Z,53.70
2019-04-14T14:55:02.284Z,53.53
2019-04-14T14:57:33.251Z,50.93
2019-04-14T15:00:06.026Z,48.80
2019-04-14T15:02:37.023Z,46.83
2019-04-14T15:05:08.387Z,51.47
2019-04-14T15:07:39.374Z,56.33
2019-04-14T15:10:10.486Z,46.87
2019-04-14T15:12:41.487Z,47.33
2019-04-14T15:15:12.623Z,47.77
2019-04-14T15:17:43.711Z,51.23
2019-04-14T15:20:15.016Z,49.17
2019-04-14T15:22:46.028Z,48.77
2019-04-14T15:25:17.136Z,45.73
2019-04-14T15:27:48.191Z,49.07
2019-04-14T15:30:21.340Z,50.33
2019-04-14T15:32:52.432Z,46.93
2019-04-14T15:35:23.565Z,60.17
2019-04-14T15:37:54.562Z,56.50
2019-04-14T15:40:25.619Z,51.90
2019-04-14T15:42:56.619Z,47.77
2019-04-14T15:45:27.618Z,49.13
2019-04-14T15:47:58.611Z,51.90
2019-04-14T15:50:29.585Z,51.00
2019-04-14T15:53:00.570Z,55.20
2019-04-14T15:55:31.537Z,51.80
2019-04-14T15:58:24.521Z,51.50
2019-04-14T16:01:13.558Z,49.50
2019-04-14T16:03:52.512Z,47.63
2019-04-14T16:06:45.656Z,51.40
2019-04-14T16:09:38.256Z,50.33
2019-04-14T16:12:28.230Z,49.83
2019-04-14T16:15:08.481Z,53.80
2019-04-14T16:18:07.359Z,50.37
2019-04-14T16:20:40.157Z,51.47
2019-04-14T16:23:11.167Z,47.63
2019-04-14T16:26:05.566Z,48.80
2019-04-14T16:28:45.524Z,51.20
2019-04-14T16:31:33.902Z,48.43
2019-04-14T16:34:13.935Z,50.80
2019-04-14T16:36:45.579Z,55.20
2019-04-14T16:39:16.623Z,48.63
2019-04-14T16:41:47.838Z,52.73
2019-04-14T16:44:19.117Z,47.70
2019-04-14T16:46:50.239Z,48.90
2019-04-14T16:49:21.225Z,51.93
2019-04-14T16:51:58.747Z,49.50
2019-04-14T16:54:54.579Z,50.83
2019-04-14T16:57:44.472Z,47.87
2019-04-14T17:00:23.465Z,49.23
2019-04-14T17:02:54.628Z,51.90
2019-04-14T17:05:25.700Z,53.10
2019-04-14T17:07:56.669Z,51.47
2019-04-14T17:10:28.847Z,46.33
2019-04-14T17:12:59.978Z,44.07
2019-04-14T17:15:48.158Z,44.00
2019-04-14T17:18:50.367Z,50.30
2019-04-14T17:21:52.563Z,41.43
2019-04-14T17:24:36.504Z,47.20
2019-04-14T17:27:35.536Z,45.40
2019-04-14T17:30:26.758Z,44.97
2019-04-14T17:33:11.463Z,41.97
2019-04-14T17:36:01.366Z,46.10
2019-04-14T17:38:51.740Z,46.73
2019-04-14T17:41:47.644Z,47.83
2019-04-14T17:44:26.212Z,50.97
2019-04-14T17:47:06.565Z,45.30
2019-04-14T17:49:56.701Z,48.00
2019-04-14T17:52:46.617Z,49.47
2019-04-14T17:55:34.983Z,46.13
2019-04-14T17:58:19.959Z,48.33
2019-04-14T18:01:15.890Z,50.50
2019-04-14T18:03:52.024Z,45.00
2019-04-14T18:06:26.379Z,50.77
2019-04-14T18:09:19.115Z,50.60
2019-04-14T18:11:56.289Z,44.53
2019-04-14T18:14:35.291Z,48.63
2019-04-14T18:17:11.841Z,47.73
2019-04-14T18:20:02.360Z,45.43
2019-04-14T18:22:33.411Z,47.87
2019-04-14T18:25:05.374Z,48.27
2019-04-14T18:27:45.494Z,51.37
2019-04-14T18:30:21.339Z,47.77
2019-04-14T18:33:11.252Z,47.90
2019-04-14T18:35:53.682Z,53.03
2019-04-14T18:38:44.584Z,52.90
2019-04-14T18:41:29.240Z,52.00
2019-04-14T18:44:23.941Z,52.20
2019-04-14T18:47:32.222Z,64.70
2019-04-14T18:50:12.822Z,56.63
2019-04-14T18:53:02.729Z,54.33
2019-04-14T18:55:48.244Z,55.73
2019-04-14T18:58:41.104Z,51.53
2019-04-14T19:01:15.648Z,55.50
2019-04-14T19:03:46.864Z,50.43
2019-04-14T19:06:17.934Z,54.60
2019-04-14T19:08:50.454Z,54.83
2019-04-14T19:11:49.045Z,51.70
2019-04-14T19:14:35.180Z,56.67
2019-04-14T19:17:25.717Z,51.20
2019-04-14T19:20:01.834Z,55.50
2019-04-14T19:22:29.401Z,53.63
2019-04-14T19:25:08.110Z,59.40
2019-04-14T19:27:33.239Z,50.33
2019-04-14T19:30:05.126Z,53.63
2019-04-14T19:32:36.112Z,55.20
2019-04-14T19:35:07.469Z,52.27
2019-04-14T19:37:38.804Z,51.43
2019-04-14T19:40:10.428Z,49.90
2019-04-14T19:42:41.401Z,49.13
2019-04-14T19:45:14.426Z,53.63
2019-04-14T19:47:45.698Z,55.97
2019-04-14T19:50:16.839Z,53.40
2019-04-14T19:52:47.904Z,51.77
2019-04-14T19:55:20.538Z,56.23
2019-04-14T19:57:51.642Z,52.80
2019-04-14T20:00:22.800Z,54.87
2019-04-14T20:02:53.782Z,53.70
2019-04-14T20:05:24.888Z,55.40
2019-04-14T20:07:55.865Z,54.80
2019-04-14T20:10:26.917Z,52.33
2019-04-14T20:12:58.386Z,51.87
2019-04-14T20:15:33.636Z,53.50
2019-04-14T20:18:22.495Z,55.20
2019-04-14T20:21:16.001Z,54.50
2019-04-14T20:23:55.299Z,66.50
2019-04-14T20:26:42.084Z,53.67
2019-04-14T20:29:34.705Z,58.63
2019-04-14T20:32:24.886Z,60.90
2019-04-14T20:34:55.975Z,56.40
2019-04-14T20:37:26.953Z,60.13
2019-04-14T20:39:58.013Z,62.90
2019-04-14T20:42:29.009Z,60.80
2019-04-14T20:45:00.351Z,57.20
2019-04-14T20:47:31.326Z,59.87
2019-04-14T20:50:02.310Z,53.77
2019-04-14T20:52:33.658Z,53.80
2019-04-14T20:55:07.171Z,52.53
2019-04-14T20:57:38.216Z,52.80
2019-04-14T21:00:10.039Z,55.83
2019-04-14T21:03:00.545Z,57.40
2019-04-14T21:05:56.211Z,55.03
2019-04-14T21:08:55.292Z,61.47
2019-04-14T21:11:29.671Z,52.33
2019-04-14T21:14:31.885Z,52.40
2019-04-14T21:17:10.950Z,52.63
2019-04-14T21:20:09.954Z,57.70
2019-04-14T21:22:49.303Z,58.23
2019-04-14T21:25:33.637Z,58.40
2019-04-14T21:28:19.129Z,61.53
2019-04-14T21:31:08.074Z,56.50
2019-04-14T21:34:07.275Z,55.53
2019-04-14T21:36:50.747Z,52.90
2019-04-14T21:39:58.999Z,59.27
2019-04-14T21:42:29.995Z,58.90
2019-04-14T21:45:00.966Z,57.93
2019-04-14T21:47:31.965Z,68.30
2019-04-14T21:50:03.082Z,56.63
2019-04-14T21:52:42.007Z,56.47
2019-04-14T21:55:13.519Z,64.50
2019-04-14T21:57:59.242Z,59.27
2019-04-14T22:01:34.368Z,64.23
2019-04-14T22:04:29.744Z,57.97
2019-04-14T22:07:11.932Z,57.20
2019-04-14T22:09:42.939Z,67.20
2019-04-14T22:12:14.022Z,66.70
2019-04-14T22:14:45.165Z,63.07
2019-04-14T22:17:16.166Z,62.57
2019-04-14T22:19:47.238Z,64.43
2019-04-14T22:22:18.551Z,67.70
2019-04-14T22:24:49.616Z,67.47
2019-04-14T22:27:20.591Z,63.83
2019-04-14T22:29:51.651Z,62.17
2019-04-14T22:32:22.741Z,61.10
2019-04-14T22:34:53.740Z,63.30
2019-04-14T22:37:24.711Z,65.70
2019-04-14T22:39:55.783Z,62.53
2019-04-14T22:42:26.778Z,60.03
2019-04-14T22:44:57.753Z,64.70
2019-04-14T22:47:28.729Z,69.67
2019-04-14T22:49:59.714Z,69.90
2019-04-14T22:52:30.682Z,66.10
2019-04-14T22:55:01.748Z,64.13
2019-04-14T22:57:32.874Z,67.40
2019-04-14T23:00:05.443Z,73.87
2019-04-14T23:03:06.597Z,67.97
2019-04-14T23:05:47.464Z,64.83
2019-04-14T23:08:40.716Z,70.00
2019-04-14T23:11:27.057Z,67.30
2019-04-14T23:14:20.443Z,72.23
2019-04-14T23:17:11.227Z,67.80
2019-04-14T23:20:05.370Z,68.40
2019-04-14T23:22:46.944Z,75.93
2019-04-14T23:25:18.059Z,66.27
2019-04-14T23:27:50.139Z,70.60
2019-04-14T23:30:21.197Z,80.20
2019-04-14T23:32:52.261Z,72.50
2019-04-14T23:35:23.325Z,75.57
2019-04-14T23:37:54.296Z,85.63
2019-04-14T23:40:25.348Z,75.40
2019-04-14T23:42:56.337Z,77.37
2019-04-14T23:45:27.392Z,82.30
2019-04-14T23:47:59.437Z,86.43
2019-04-14T23:50:30.512Z,83.80
2019-04-14T23:53:01.497Z,82.57
2019-04-14T23:55:32.553Z,82.83
2019-04-14T23:58:03.596Z,76.93
